sensor_id;sensor_type;location;lat;lon;timestamp;P1;durP1;ratioP1;P2;durP2;ratioP2
66595;SDS011;59017;49.252;18.838;2022-10-19T00:03:29;22.77;;;12.80;;
66595;SDS011;59017;49.252;18.838;2022-10-19T00:05:55;20.15;;;13.60;;
66595;SDS011;59017;49.252;18.838;2022-10-19T00:08:21;18.42;;;12.98;;
66595;SDS011;59017;49.252;18.838;2022-10-19T00:10:46;21.88;;;13.18;;
66595;SDS011;59017;49.252;18.838;2022-10-19T00:13:12;18.33;;;12.68;;
66595;SDS011;59017;49.252;18.838;2022-10-19T00:15:41;19.42;;;12.80;;
66595;SDS011;59017;49.252;18.838;2022-10-19T00:18:07;18.25;;;13.02;;
66595;SDS011;59017;49.252;18.838;2022-10-19T00:20:33;19.88;;;12.77;;
66595;SDS011;59017;49.252;18.838;2022-10-19T00:23:00;20.95;;;13.52;;
66595;SDS011;59017;49.252;18.838;2022-10-19T00:25:26;19.33;;;13.13;;
66595;SDS011;59017;49.252;18.838;2022-10-19T00:27:51;21.15;;;13.30;;
66595;SDS011;59017;49.252;18.838;2022-10-19T00:30:17;21.15;;;13.73;;
66595;SDS011;59017;49.252;18.838;2022-10-19T00:32:42;20.00;;;12.73;;
66595;SDS011;59017;49.252;18.838;2022-10-19T00:35:08;19.65;;;12.52;;
66595;SDS011;59017;49.252;18.838;2022-10-19T00:37:34;17.75;;;12.30;;
66595;SDS011;59017;49.252;18.838;2022-10-19T00:39:59;19.63;;;12.77;;
66595;SDS011;59017;49.252;18.838;2022-10-19T00:42:24;19.88;;;12.35;;
66595;SDS011;59017;49.252;18.838;2022-10-19T00:47:15;22.95;;;13.15;;
66595;SDS011;59017;49.252;18.838;2022-10-19T00:49:44;22.90;;;12.30;;
66595;SDS011;59017;49.252;18.838;2022-10-19T00:52:14;26.75;;;12.07;;
66595;SDS011;59017;49.252;18.838;2022-10-19T00:54:43;17.73;;;12.52;;
66595;SDS011;59017;49.252;18.838;2022-10-19T00:57:10;21.60;;;12.85;;
66595;SDS011;59017;49.252;18.838;2022-10-19T00:59:37;18.65;;;11.57;;
66595;SDS011;59017;49.252;18.838;2022-10-19T01:02:05;18.38;;;13.23;;
66595;SDS011;59017;49.252;18.838;2022-10-19T01:04:31;21.05;;;12.25;;
66595;SDS011;59017;49.252;18.838;2022-10-19T01:06:59;17.08;;;12.15;;
66595;SDS011;59017;49.252;18.838;2022-10-19T01:09:27;19.27;;;12.40;;
66595;SDS011;59017;49.252;18.838;2022-10-19T01:32:21;20.25;;;12.32;;
66595;SDS011;59017;49.252;18.838;2022-10-19T01:37:37;18.73;;;12.87;;
66595;SDS011;59017;49.252;18.838;2022-10-19T01:41:45;20.90;;;12.15;;
66595;SDS011;59017;49.252;18.838;2022-10-19T01:43:55;17.75;;;12.40;;
66595;SDS011;59017;49.252;18.838;2022-10-19T01:46:35;19.75;;;11.82;;
66595;SDS011;59017;49.252;18.838;2022-10-19T01:49:19;18.73;;;11.90;;
66595;SDS011;59017;49.252;18.838;2022-10-19T01:52:04;20.75;;;12.07;;
66595;SDS011;59017;49.252;18.838;2022-10-19T01:54:39;15.50;;;11.75;;
66595;SDS011;59017;49.252;18.838;2022-10-19T01:57:08;20.38;;;11.77;;
66595;SDS011;59017;49.252;18.838;2022-10-19T01:59:36;20.13;;;11.23;;
66595;SDS011;59017;49.252;18.838;2022-10-19T02:02:03;15.82;;;11.75;;
66595;SDS011;59017;49.252;18.838;2022-10-19T02:04:30;18.38;;;12.38;;
66595;SDS011;59017;49.252;18.838;2022-10-19T02:06:58;18.73;;;12.57;;
66595;SDS011;59017;49.252;18.838;2022-10-19T02:09:26;18.42;;;11.52;;
66595;SDS011;59017;49.252;18.838;2022-10-19T02:11:55;16.88;;;12.02;;
66595;SDS011;59017;49.252;18.838;2022-10-19T02:14:29;14.90;;;11.18;;
66595;SDS011;59017;49.252;18.838;2022-10-19T02:17:03;16.65;;;11.82;;
66595;SDS011;59017;49.252;18.838;2022-10-19T02:19:41;17.17;;;11.63;;
66595;SDS011;59017;49.252;18.838;2022-10-19T02:22:07;18.38;;;11.00;;
66595;SDS011;59017;49.252;18.838;2022-10-19T02:24:33;16.08;;;11.20;;
66595;SDS011;59017;49.252;18.838;2022-10-19T02:26:58;16.02;;;11.27;;
66595;SDS011;59017;49.252;18.838;2022-10-19T02:29:25;17.95;;;11.07;;
66595;SDS011;59017;49.252;18.838;2022-10-19T02:31:51;16.90;;;10.80;;
66595;SDS011;59017;49.252;18.838;2022-10-19T02:34:17;15.23;;;11.18;;
66595;SDS011;59017;49.252;18.838;2022-10-19T02:36:43;15.27;;;11.50;;
66595;SDS011;59017;49.252;18.838;2022-10-19T02:39:08;16.15;;;10.10;;
66595;SDS011;59017;49.252;18.838;2022-10-19T02:41:55;15.43;;;10.35;;
66595;SDS011;59017;49.252;18.838;2022-10-19T02:44:30;13.48;;;10.10;;
66595;SDS011;59017;49.252;18.838;2022-10-19T02:49:37;14.32;;;9.93;;
66595;SDS011;59017;49.252;18.838;2022-10-19T02:52:04;14.00;;;10.32;;
66595;SDS011;59017;49.252;18.838;2022-10-19T02:54:31;14.95;;;9.85;;
66595;SDS011;59017;49.252;18.838;2022-10-19T02:56:57;14.15;;;9.65;;
66595;SDS011;59017;49.252;18.838;2022-10-19T02:59:22;14.10;;;8.70;;
66595;SDS011;59017;49.252;18.838;2022-10-19T03:01:48;13.90;;;8.43;;
66595;SDS011;59017;49.252;18.838;2022-10-19T03:04:14;13.15;;;9.02;;
66595;SDS011;59017;49.252;18.838;2022-10-19T03:06:40;14.07;;;8.93;;
66595;SDS011;59017;49.252;18.838;2022-10-19T03:09:06;15.73;;;8.98;;
66595;SDS011;59017;49.252;18.838;2022-10-19T03:11:32;12.52;;;8.68;;
66595;SDS011;59017;49.252;18.838;2022-10-19T03:13:58;15.32;;;9.57;;
66595;SDS011;59017;49.252;18.838;2022-10-19T03:16:23;16.58;;;9.82;;
66595;SDS011;59017;49.252;18.838;2022-10-19T03:18:49;12.35;;;9.18;;
66595;SDS011;59017;49.252;18.838;2022-10-19T03:21:15;13.23;;;8.82;;
66595;SDS011;59017;49.252;18.838;2022-10-19T03:23:40;12.10;;;8.82;;
66595;SDS011;59017;49.252;18.838;2022-10-19T03:26:07;12.55;;;8.77;;
66595;SDS011;59017;49.252;18.838;2022-10-19T03:28:35;15.18;;;9.48;;
66595;SDS011;59017;49.252;18.838;2022-10-19T03:31:01;12.88;;;9.20;;
66595;SDS011;59017;49.252;18.838;2022-10-19T03:33:26;12.60;;;8.93;;
66595;SDS011;59017;49.252;18.838;2022-10-19T03:38:37;12.32;;;9.25;;
66595;SDS011;59017;49.252;18.838;2022-10-19T03:41:04;14.30;;;8.63;;
66595;SDS011;59017;49.252;18.838;2022-10-19T03:43:30;13.25;;;9.45;;
66595;SDS011;59017;49.252;18.838;2022-10-19T03:45:56;14.85;;;9.30;;
66595;SDS011;59017;49.252;18.838;2022-10-19T03:48:21;11.73;;;8.90;;
66595;SDS011;59017;49.252;18.838;2022-10-19T03:50:47;14.30;;;9.10;;
66595;SDS011;59017;49.252;18.838;2022-10-19T03:53:12;14.75;;;9.38;;
66595;SDS011;59017;49.252;18.838;2022-10-19T03:55:38;13.38;;;9.10;;
66595;SDS011;59017;49.252;18.838;2022-10-19T03:58:04;11.90;;;8.60;;
66595;SDS011;59017;49.252;18.838;2022-10-19T04:00:29;12.80;;;9.32;;
66595;SDS011;59017;49.252;18.838;2022-10-19T04:02:55;13.43;;;10.32;;
66595;SDS011;59017;49.252;18.838;2022-10-19T04:05:20;14.82;;;9.65;;
66595;SDS011;59017;49.252;18.838;2022-10-19T04:07:46;12.55;;;9.18;;
66595;SDS011;59017;49.252;18.838;2022-10-19T04:10:11;16.63;;;10.13;;
66595;SDS011;59017;49.252;18.838;2022-10-19T04:12:36;15.85;;;9.55;;
66595;SDS011;59017;49.252;18.838;2022-10-19T04:15:02;17.05;;;11.23;;
66595;SDS011;59017;49.252;18.838;2022-10-19T04:17:28;15.82;;;11.75;;
66595;SDS011;59017;49.252;18.838;2022-10-19T04:19:53;19.30;;;11.73;;
66595;SDS011;59017;49.252;18.838;2022-10-19T04:22:19;17.65;;;11.98;;
66595;SDS011;59017;49.252;18.838;2022-10-19T04:24:44;15.13;;;11.18;;
66595;SDS011;59017;49.252;18.838;2022-10-19T04:27:09;14.40;;;10.95;;
66595;SDS011;59017;49.252;18.838;2022-10-19T04:29:35;13.65;;;10.45;;
66595;SDS011;59017;49.252;18.838;2022-10-19T04:32:00;15.57;;;10.18;;
66595;SDS011;59017;49.252;18.838;2022-10-19T04:34:26;13.88;;;9.77;;
66595;SDS011;59017;49.252;18.838;2022-10-19T04:36:52;14.77;;;9.95;;
66595;SDS011;59017;49.252;18.838;2022-10-19T04:39:17;17.23;;;10.45;;
66595;SDS011;59017;49.252;18.838;2022-10-19T04:41:43;17.05;;;10.55;;
66595;SDS011;59017;49.252;18.838;2022-10-19T04:44:09;17.13;;;10.63;;
66595;SDS011;59017;49.252;18.838;2022-10-19T04:46:34;17.38;;;10.52;;
66595;SDS011;59017;49.252;18.838;2022-10-19T04:49:03;14.10;;;10.45;;
66595;SDS011;59017;49.252;18.838;2022-10-19T04:51:30;17.45;;;10.52;;
66595;SDS011;59017;49.252;18.838;2022-10-19T04:53:55;14.02;;;9.80;;
66595;SDS011;59017;49.252;18.838;2022-10-19T04:56:22;16.13;;;10.20;;
66595;SDS011;59017;49.252;18.838;2022-10-19T04:58:55;14.30;;;9.43;;
66595;SDS011;59017;49.252;18.838;2022-10-19T05:01:21;13.85;;;9.43;;
66595;SDS011;59017;49.252;18.838;2022-10-19T05:03:51;18.52;;;9.65;;
66595;SDS011;59017;49.252;18.838;2022-10-19T05:06:18;16.65;;;10.30;;
66595;SDS011;59017;49.252;18.838;2022-10-19T05:08:43;15.13;;;9.40;;
66595;SDS011;59017;49.252;18.838;2022-10-19T05:11:12;13.98;;;9.27;;
66595;SDS011;59017;49.252;18.838;2022-10-19T05:13:39;13.48;;;10.02;;
66595;SDS011;59017;49.252;18.838;2022-10-19T05:16:05;14.45;;;9.65;;
66595;SDS011;59017;49.252;18.838;2022-10-19T05:18:32;13.80;;;9.65;;
66595;SDS011;59017;49.252;18.838;2022-10-19T05:20:59;14.13;;;9.48;;
66595;SDS011;59017;49.252;18.838;2022-10-19T05:23:29;13.30;;;9.45;;
66595;SDS011;59017;49.252;18.838;2022-10-19T05:26:02;13.52;;;10.23;;
66595;SDS011;59017;49.252;18.838;2022-10-19T05:28:29;13.75;;;9.90;;
66595;SDS011;59017;49.252;18.838;2022-10-19T05:30:55;14.63;;;9.68;;
66595;SDS011;59017;49.252;18.838;2022-10-19T05:33:20;15.10;;;10.70;;
66595;SDS011;59017;49.252;18.838;2022-10-19T05:35:46;16.33;;;11.07;;
66595;SDS011;59017;49.252;18.838;2022-10-19T05:38:11;14.68;;;10.60;;
66595;SDS011;59017;49.252;18.838;2022-10-19T05:40:37;16.05;;;11.13;;
66595;SDS011;59017;49.252;18.838;2022-10-19T05:43:08;21.02;;;12.07;;
66595;SDS011;59017;49.252;18.838;2022-10-19T05:45:33;14.93;;;11.15;;
66595;SDS011;59017;49.252;18.838;2022-10-19T05:48:01;22.45;;;11.82;;
66595;SDS011;59017;49.252;18.838;2022-10-19T05:50:26;16.73;;;11.45;;
66595;SDS011;59017;49.252;18.838;2022-10-19T05:52:52;17.02;;;12.13;;
66595;SDS011;59017;49.252;18.838;2022-10-19T05:55:18;17.30;;;12.32;;
66595;SDS011;59017;49.252;18.838;2022-10-19T05:57:43;16.70;;;12.02;;
66595;SDS011;59017;49.252;18.838;2022-10-19T06:00:09;16.05;;;12.25;;
66595;SDS011;59017;49.252;18.838;2022-10-19T06:02:35;16.13;;;11.93;;
66595;SDS011;59017;49.252;18.838;2022-10-19T06:05:00;16.17;;;12.13;;
66595;SDS011;59017;49.252;18.838;2022-10-19T06:07:26;14.57;;;11.05;;
66595;SDS011;59017;49.252;18.838;2022-10-19T06:09:51;16.92;;;12.50;;
66595;SDS011;59017;49.252;18.838;2022-10-19T06:12:17;21.80;;;11.30;;
66595;SDS011;59017;49.252;18.838;2022-10-19T06:14:44;16.58;;;11.18;;
66595;SDS011;59017;49.252;18.838;2022-10-19T06:17:09;14.70;;;10.05;;
66595;SDS011;59017;49.252;18.838;2022-10-19T06:19:35;14.55;;;10.98;;
66595;SDS011;59017;49.252;18.838;2022-10-19T06:22:01;18.35;;;10.30;;
66595;SDS011;59017;49.252;18.838;2022-10-19T06:24:26;13.25;;;9.90;;
66595;SDS011;59017;49.252;18.838;2022-10-19T06:26:52;18.33;;;10.10;;
66595;SDS011;59017;49.252;18.838;2022-10-19T06:29:17;15.35;;;9.82;;
66595;SDS011;59017;49.252;18.838;2022-10-19T06:31:43;17.75;;;10.02;;
66595;SDS011;59017;49.252;18.838;2022-10-19T06:34:10;14.10;;;9.93;;
66595;SDS011;59017;49.252;18.838;2022-10-19T06:36:36;12.88;;;9.60;;
66595;SDS011;59017;49.252;18.838;2022-10-19T06:39:01;15.05;;;9.90;;
66595;SDS011;59017;49.252;18.838;2022-10-19T06:41:30;13.82;;;9.82;;
66595;SDS011;59017;49.252;18.838;2022-10-19T06:43:56;17.83;;;11.02;;
66595;SDS011;59017;49.252;18.838;2022-10-19T06:46:23;17.40;;;10.63;;
66595;SDS011;59017;49.252;18.838;2022-10-19T06:48:53;18.45;;;11.27;;
66595;SDS011;59017;49.252;18.838;2022-10-19T06:51:21;15.95;;;11.68;;
66595;SDS011;59017;49.252;18.838;2022-10-19T06:53:47;15.57;;;11.68;;
66595;SDS011;59017;49.252;18.838;2022-10-19T06:56:13;14.75;;;11.43;;
66595;SDS011;59017;49.252;18.838;2022-10-19T06:58:38;18.33;;;11.63;;
66595;SDS011;59017;49.252;18.838;2022-10-19T07:01:04;15.02;;;9.98;;
66595;SDS011;59017;49.252;18.838;2022-10-19T07:03:32;14.20;;;9.77;;
66595;SDS011;59017;49.252;18.838;2022-10-19T07:05:58;13.25;;;10.02;;
66595;SDS011;59017;49.252;18.838;2022-10-19T07:08:26;23.80;;;10.27;;
66595;SDS011;59017;49.252;18.838;2022-10-19T07:10:57;15.95;;;9.75;;
66595;SDS011;59017;49.252;18.838;2022-10-19T07:13:25;14.30;;;8.85;;
66595;SDS011;59017;49.252;18.838;2022-10-19T07:15:57;15.15;;;9.52;;
66595;SDS011;59017;49.252;18.838;2022-10-19T07:18:25;14.15;;;9.43;;
66595;SDS011;59017;49.252;18.838;2022-10-19T07:20:58;11.77;;;8.38;;
66595;SDS011;59017;49.252;18.838;2022-10-19T07:23:26;10.13;;;8.13;;
66595;SDS011;59017;49.252;18.838;2022-10-19T07:25:53;12.13;;;7.97;;
66595;SDS011;59017;49.252;18.838;2022-10-19T07:30:50;11.43;;;7.93;;
66595;SDS011;59017;49.252;18.838;2022-10-19T07:33:16;10.75;;;8.25;;
66595;SDS011;59017;49.252;18.838;2022-10-19T07:35:41;13.85;;;7.50;;
66595;SDS011;59017;49.252;18.838;2022-10-19T07:38:07;13.23;;;7.43;;
66595;SDS011;59017;49.252;18.838;2022-10-19T07:40:33;12.18;;;8.00;;
66595;SDS011;59017;49.252;18.838;2022-10-19T07:42:58;12.43;;;7.85;;
66595;SDS011;59017;49.252;18.838;2022-10-19T07:45:24;13.65;;;7.60;;
66595;SDS011;59017;49.252;18.838;2022-10-19T07:47:49;10.52;;;7.72;;
66595;SDS011;59017;49.252;18.838;2022-10-19T07:50:15;15.40;;;8.02;;
66595;SDS011;59017;49.252;18.838;2022-10-19T07:52:40;15.48;;;7.63;;
66595;SDS011;59017;49.252;18.838;2022-10-19T07:55:06;10.90;;;8.07;;
66595;SDS011;59017;49.252;18.838;2022-10-19T07:57:32;9.48;;;7.75;;
66595;SDS011;59017;49.252;18.838;2022-10-19T07:59:58;19.70;;;7.57;;
66595;SDS011;59017;49.252;18.838;2022-10-19T08:02:23;9.57;;;6.85;;
66595;SDS011;59017;49.252;18.838;2022-10-19T08:04:49;10.80;;;6.97;;
66595;SDS011;59017;49.252;18.838;2022-10-19T08:07:15;10.15;;;7.00;;
66595;SDS011;59017;49.252;18.838;2022-10-19T08:09:40;9.60;;;7.05;;
66595;SDS011;59017;49.252;18.838;2022-10-19T08:12:07;9.35;;;7.05;;
66595;SDS011;59017;49.252;18.838;2022-10-19T08:14:32;10.02;;;7.03;;
66595;SDS011;59017;49.252;18.838;2022-10-19T08:16:58;9.35;;;6.43;;
66595;SDS011;59017;49.252;18.838;2022-10-19T08:19:24;9.93;;;6.57;;
66595;SDS011;59017;49.252;18.838;2022-10-19T08:21:50;9.77;;;6.28;;
66595;SDS011;59017;49.252;18.838;2022-10-19T08:24:16;9.32;;;6.30;;
66595;SDS011;59017;49.252;18.838;2022-10-19T08:26:43;10.82;;;6.65;;
66595;SDS011;59017;49.252;18.838;2022-10-19T08:29:16;8.70;;;6.43;;
66595;SDS011;59017;49.252;18.838;2022-10-19T08:31:43;10.48;;;6.93;;
66595;SDS011;59017;49.252;18.838;2022-10-19T08:34:10;9.63;;;6.35;;
66595;SDS011;59017;49.252;18.838;2022-10-19T08:36:36;9.68;;;6.55;;
66595;SDS011;59017;49.252;18.838;2022-10-19T08:39:03;10.32;;;6.05;;
66595;SDS011;59017;49.252;18.838;2022-10-19T08:47:09;10.98;;;5.28;;
66595;SDS011;59017;49.252;18.838;2022-10-19T08:49:58;6.97;;;4.68;;
66595;SDS011;59017;49.252;18.838;2022-10-19T08:52:31;13.77;;;5.38;;
66595;SDS011;59017;49.252;18.838;2022-10-19T08:55:06;7.97;;;4.63;;
66595;SDS011;59017;49.252;18.838;2022-10-19T09:02:53;8.20;;;4.90;;
66595;SDS011;59017;49.252;18.838;2022-10-19T09:08:08;8.98;;;4.60;;
66595;SDS011;59017;49.252;18.838;2022-10-19T09:10:39;7.18;;;4.30;;
66595;SDS011;59017;49.252;18.838;2022-10-19T09:15:41;10.05;;;4.60;;
66595;SDS011;59017;49.252;18.838;2022-10-19T09:20:54;6.63;;;4.30;;
66595;SDS011;59017;49.252;18.838;2022-10-19T09:25:54;6.95;;;4.15;;
66595;SDS011;59017;49.252;18.838;2022-10-19T09:31:02;8.00;;;3.90;;
66595;SDS011;59017;49.252;18.838;2022-10-19T09:33:32;6.28;;;3.60;;
66595;SDS011;59017;49.252;18.838;2022-10-19T09:36:02;7.05;;;4.15;;
66595;SDS011;59017;49.252;18.838;2022-10-19T09:38:29;9.85;;;4.10;;
66595;SDS011;59017;49.252;18.838;2022-10-19T09:41:17;10.45;;;3.83;;
66595;SDS011;59017;49.252;18.838;2022-10-19T09:43:48;7.53;;;3.83;;
66595;SDS011;59017;49.252;18.838;2022-10-19T09:46:32;7.35;;;4.13;;
66595;SDS011;59017;49.252;18.838;2022-10-19T09:49:08;9.80;;;3.38;;
66595;SDS011;59017;49.252;18.838;2022-10-19T09:51:43;5.57;;;3.58;;
66595;SDS011;59017;49.252;18.838;2022-10-19T09:54:33;5.80;;;3.43;;
66595;SDS011;59017;49.252;18.838;2022-10-19T09:57:01;9.60;;;3.95;;
66595;SDS011;59017;49.252;18.838;2022-10-19T09:59:35;8.98;;;3.42;;
66595;SDS011;59017;49.252;18.838;2022-10-19T10:04:30;6.07;;;3.47;;
66595;SDS011;59017;49.252;18.838;2022-10-19T10:06:55;6.45;;;3.50;;
66595;SDS011;59017;49.252;18.838;2022-10-19T10:09:22;8.15;;;3.67;;
66595;SDS011;59017;49.252;18.838;2022-10-19T10:11:51;5.30;;;3.53;;
66595;SDS011;59017;49.252;18.838;2022-10-19T10:14:19;6.72;;;3.55;;
66595;SDS011;59017;49.252;18.838;2022-10-19T10:17:33;5.65;;;3.15;;
66595;SDS011;59017;49.252;18.838;2022-10-19T10:19:49;10.05;;;3.72;;
66595;SDS011;59017;49.252;18.838;2022-10-19T10:22:28;10.13;;;4.07;;
66595;SDS011;59017;49.252;18.838;2022-10-19T10:27:29;5.35;;;3.55;;
66595;SDS011;59017;49.252;18.838;2022-10-19T10:30:04;6.30;;;3.30;;
66595;SDS011;59017;49.252;18.838;2022-10-19T10:32:37;7.28;;;3.40;;
66595;SDS011;59017;49.252;18.838;2022-10-19T10:35:15;6.13;;;3.60;;
66595;SDS011;59017;49.252;18.838;2022-10-19T10:38:07;7.03;;;3.40;;
66595;SDS011;59017;49.252;18.838;2022-10-19T10:40:37;5.88;;;3.35;;
66595;SDS011;59017;49.252;18.838;2022-10-19T10:43:13;8.90;;;3.55;;
66595;SDS011;59017;49.252;18.838;2022-10-19T10:45:44;5.38;;;2.92;;
66595;SDS011;59017;49.252;18.838;2022-10-19T10:48:26;8.23;;;3.30;;
66595;SDS011;59017;49.252;18.838;2022-10-19T10:50:54;9.93;;;3.40;;
66595;SDS011;59017;49.252;18.838;2022-10-19T10:53:30;9.10;;;3.38;;
66595;SDS011;59017;49.252;18.838;2022-10-19T10:55:58;8.93;;;3.35;;
66595;SDS011;59017;49.252;18.838;2022-10-19T10:58:32;5.03;;;3.05;;
66595;SDS011;59017;49.252;18.838;2022-10-19T11:04:23;6.53;;;3.30;;
66595;SDS011;59017;49.252;18.838;2022-10-19T11:06:53;5.72;;;3.33;;
66595;SDS011;59017;49.252;18.838;2022-10-19T11:09:33;5.88;;;3.10;;
66595;SDS011;59017;49.252;18.838;2022-10-19T11:12:03;6.97;;;3.70;;
66595;SDS011;59017;49.252;18.838;2022-10-19T11:17:15;7.13;;;3.53;;
66595;SDS011;59017;49.252;18.838;2022-10-19T11:19:45;5.63;;;3.35;;
66595;SDS011;59017;49.252;18.838;2022-10-19T11:30:27;7.45;;;2.60;;
66595;SDS011;59017;49.252;18.838;2022-10-19T11:35:31;6.60;;;3.30;;
66595;SDS011;59017;49.252;18.838;2022-10-19T11:38:01;6.72;;;3.00;;
66595;SDS011;59017;49.252;18.838;2022-10-19T11:43:37;7.93;;;3.05;;
66595;SDS011;59017;49.252;18.838;2022-10-19T11:47:12;5.65;;;2.80;;
66595;SDS011;59017;49.252;18.838;2022-10-19T12:01:32;4.63;;;2.60;;
66595;SDS011;59017;49.252;18.838;2022-10-19T12:04:04;6.93;;;2.75;;
66595;SDS011;59017;49.252;18.838;2022-10-19T12:07:10;5.22;;;2.85;;
66595;SDS011;59017;49.252;18.838;2022-10-19T12:10:00;5.68;;;3.13;;
66595;SDS011;59017;49.252;18.838;2022-10-19T12:12:36;5.63;;;2.95;;
66595;SDS011;59017;49.252;18.838;2022-10-19T12:17:35;8.27;;;3.40;;
66595;SDS011;59017;49.252;18.838;2022-10-19T12:20:25;6.65;;;2.85;;
66595;SDS011;59017;49.252;18.838;2022-10-19T12:22:58;7.43;;;2.72;;
66595;SDS011;59017;49.252;18.838;2022-10-19T12:25:43;6.88;;;3.00;;
66595;SDS011;59017;49.252;18.838;2022-10-19T12:28:14;7.88;;;3.13;;
66595;SDS011;59017;49.252;18.838;2022-10-19T12:30:46;5.57;;;2.75;;
66595;SDS011;59017;49.252;18.838;2022-10-19T12:33:22;5.30;;;2.90;;
66595;SDS011;59017;49.252;18.838;2022-10-19T12:44:20;6.13;;;2.90;;
66595;SDS011;59017;49.252;18.838;2022-10-19T12:46:59;9.20;;;2.75;;
66595;SDS011;59017;49.252;18.838;2022-10-19T12:49:34;8.10;;;3.03;;
66595;SDS011;59017;49.252;18.838;2022-10-19T12:52:02;6.05;;;3.03;;
66595;SDS011;59017;49.252;18.838;2022-10-19T12:54:30;6.97;;;2.72;;
66595;SDS011;59017;49.252;18.838;2022-10-19T12:56:59;9.45;;;2.92;;
66595;SDS011;59017;49.252;18.838;2022-10-19T12:59:33;6.50;;;2.75;;
66595;SDS011;59017;49.252;18.838;2022-10-19T13:02:01;6.25;;;2.60;;
66595;SDS011;59017;49.252;18.838;2022-10-19T13:04:31;5.22;;;2.72;;
66595;SDS011;59017;49.252;18.838;2022-10-19T13:06:59;6.28;;;2.50;;
66595;SDS011;59017;49.252;18.838;2022-10-19T13:14:41;6.82;;;2.75;;
66595;SDS011;59017;49.252;18.838;2022-10-19T13:17:10;7.80;;;2.75;;
66595;SDS011;59017;49.252;18.838;2022-10-19T13:25:34;7.68;;;2.60;;
66595;SDS011;59017;49.252;18.838;2022-10-19T13:41:04;5.72;;;2.40;;
66595;SDS011;59017;49.252;18.838;2022-10-19T13:51:37;4.70;;;2.25;;
66595;SDS011;59017;49.252;18.838;2022-10-19T14:10:24;5.00;;;2.13;;
66595;SDS011;59017;49.252;18.838;2022-10-19T14:12:51;6.00;;;1.90;;
66595;SDS011;59017;49.252;18.838;2022-10-19T14:17:42;4.68;;;2.00;;
66595;SDS011;59017;49.252;18.838;2022-10-19T14:20:42;5.13;;;1.83;;
66595;SDS011;59017;49.252;18.838;2022-10-19T14:23:17;4.68;;;1.92;;
66595;SDS011;59017;49.252;18.838;2022-10-19T14:28:16;5.28;;;1.98;;
66595;SDS011;59017;49.252;18.838;2022-10-19T14:30:42;4.97;;;1.90;;
66595;SDS011;59017;49.252;18.838;2022-10-19T14:33:09;4.18;;;1.90;;
66595;SDS011;59017;49.252;18.838;2022-10-19T14:35:39;4.47;;;1.80;;
66595;SDS011;59017;49.252;18.838;2022-10-19T14:38:13;6.90;;;2.08;;
66595;SDS011;59017;49.252;18.838;2022-10-19T14:40:43;11.30;;;1.95;;
66595;SDS011;59017;49.252;18.838;2022-10-19T14:43:19;4.10;;;2.00;;
66595;SDS011;59017;49.252;18.838;2022-10-19T14:46:28;4.45;;;2.13;;
66595;SDS011;59017;49.252;18.838;2022-10-19T14:48:57;6.15;;;1.98;;
66595;SDS011;59017;49.252;18.838;2022-10-19T14:54:19;5.05;;;2.10;;
66595;SDS011;59017;49.252;18.838;2022-10-19T14:57:00;4.43;;;1.90;;
66595;SDS011;59017;49.252;18.838;2022-10-19T15:00:06;7.07;;;2.22;;
66595;SDS011;59017;49.252;18.838;2022-10-19T15:02:40;5.28;;;2.20;;
66595;SDS011;59017;49.252;18.838;2022-10-19T15:05:19;3.92;;;1.80;;
66595;SDS011;59017;49.252;18.838;2022-10-19T15:07:46;4.30;;;1.85;;
66595;SDS011;59017;49.252;18.838;2022-10-19T15:12:50;6.55;;;1.85;;
66595;SDS011;59017;49.252;18.838;2022-10-19T15:15:25;5.55;;;1.73;;
66595;SDS011;59017;49.252;18.838;2022-10-19T15:17:53;8.07;;;2.13;;
66595;SDS011;59017;49.252;18.838;2022-10-19T15:22:59;4.13;;;1.63;;
66595;SDS011;59017;49.252;18.838;2022-10-19T15:25:33;6.43;;;1.77;;
66595;SDS011;59017;49.252;18.838;2022-10-19T15:30:57;6.53;;;1.98;;
66595;SDS011;59017;49.252;18.838;2022-10-19T15:33:50;4.85;;;1.83;;
66595;SDS011;59017;49.252;18.838;2022-10-19T15:36:16;3.42;;;1.88;;
66595;SDS011;59017;49.252;18.838;2022-10-19T15:38:47;5.10;;;1.88;;
66595;SDS011;59017;49.252;18.838;2022-10-19T15:41:27;4.05;;;1.85;;
66595;SDS011;59017;49.252;18.838;2022-10-19T15:51:45;4.97;;;1.70;;
66595;SDS011;59017;49.252;18.838;2022-10-19T15:54:12;5.30;;;1.77;;
66595;SDS011;59017;49.252;18.838;2022-10-19T15:56:46;4.13;;;1.90;;
66595;SDS011;59017;49.252;18.838;2022-10-19T15:59:16;3.78;;;1.70;;
66595;SDS011;59017;49.252;18.838;2022-10-19T16:01:52;5.20;;;1.95;;
66595;SDS011;59017;49.252;18.838;2022-10-19T16:04:18;3.58;;;1.80;;
66595;SDS011;59017;49.252;18.838;2022-10-19T16:06:43;4.13;;;1.92;;
66595;SDS011;59017;49.252;18.838;2022-10-19T16:09:18;5.80;;;1.70;;
66595;SDS011;59017;49.252;18.838;2022-10-19T16:11:45;4.78;;;2.10;;
66595;SDS011;59017;49.252;18.838;2022-10-19T16:14:11;4.55;;;1.75;;
66595;SDS011;59017;49.252;18.838;2022-10-19T16:16:37;6.40;;;2.50;;
66595;SDS011;59017;49.252;18.838;2022-10-19T16:19:02;7.68;;;2.00;;
66595;SDS011;59017;49.252;18.838;2022-10-19T16:21:29;4.03;;;1.83;;
66595;SDS011;59017;49.252;18.838;2022-10-19T16:24:00;4.32;;;1.98;;
66595;SDS011;59017;49.252;18.838;2022-10-19T16:26:25;4.38;;;2.10;;
66595;SDS011;59017;49.252;18.838;2022-10-19T16:28:52;3.90;;;1.75;;
66595;SDS011;59017;49.252;18.838;2022-10-19T16:31:19;4.40;;;1.95;;
66595;SDS011;59017;49.252;18.838;2022-10-19T16:33:45;2.90;;;1.75;;
66595;SDS011;59017;49.252;18.838;2022-10-19T16:36:12;4.97;;;2.00;;
66595;SDS011;59017;49.252;18.838;2022-10-19T16:38:38;6.25;;;1.90;;
66595;SDS011;59017;49.252;18.838;2022-10-19T16:41:08;4.57;;;1.98;;
66595;SDS011;59017;49.252;18.838;2022-10-19T16:43:34;4.05;;;2.03;;
66595;SDS011;59017;49.252;18.838;2022-10-19T16:46:00;6.57;;;1.77;;
66595;SDS011;59017;49.252;18.838;2022-10-19T16:48:26;6.50;;;2.13;;
66595;SDS011;59017;49.252;18.838;2022-10-19T16:53:29;5.75;;;2.10;;
66595;SDS011;59017;49.252;18.838;2022-10-19T16:55:55;6.35;;;2.20;;
66595;SDS011;59017;49.252;18.838;2022-10-19T16:58:29;5.90;;;2.65;;
66595;SDS011;59017;49.252;18.838;2022-10-19T17:00:54;9.38;;;3.15;;
66595;SDS011;59017;49.252;18.838;2022-10-19T17:03:20;13.45;;;3.92;;
66595;SDS011;59017;49.252;18.838;2022-10-19T17:05:46;10.35;;;4.80;;
66595;SDS011;59017;49.252;18.838;2022-10-19T17:08:11;11.13;;;4.82;;
66595;SDS011;59017;49.252;18.838;2022-10-19T17:10:37;13.15;;;5.80;;
66595;SDS011;59017;49.252;18.838;2022-10-19T17:13:02;14.18;;;6.03;;
66595;SDS011;59017;49.252;18.838;2022-10-19T17:15:28;20.33;;;6.55;;
66595;SDS011;59017;49.252;18.838;2022-10-19T17:17:53;12.68;;;6.22;;
66595;SDS011;59017;49.252;18.838;2022-10-19T17:20:21;11.85;;;5.70;;
66595;SDS011;59017;49.252;18.838;2022-10-19T17:22:46;15.00;;;5.88;;
66595;SDS011;59017;49.252;18.838;2022-10-19T17:25:15;12.35;;;6.28;;
66595;SDS011;59017;49.252;18.838;2022-10-19T17:27:40;24.08;;;7.70;;
66595;SDS011;59017;49.252;18.838;2022-10-19T17:30:06;13.25;;;7.68;;
66595;SDS011;59017;49.252;18.838;2022-10-19T17:32:32;11.68;;;7.25;;
66595;SDS011;59017;49.252;18.838;2022-10-19T17:34:57;11.98;;;5.88;;
66595;SDS011;59017;49.252;18.838;2022-10-19T17:37:23;11.32;;;5.35;;
66595;SDS011;59017;49.252;18.838;2022-10-19T17:39:49;10.70;;;5.10;;